sensor_id;sensor_type;location;lat;lon;timestamp;temperature;humidity
5392;DHT22;2719;53.624;9.786;2023-07-13T00:00:49;17.90;99.90
5392;DHT22;2719;53.624;9.786;2023-07-13T00:03:16;17.90;99.90
5392;DHT22;2719;53.624;9.786;2023-07-13T00:05:43;17.90;99.90
5392;DHT22;2719;53.624;9.786;2023-07-13T00:08:11;17.90;99.90
5392;DHT22;2719;53.624;9.786;2023-07-13T00:10:40;17.90;99.90
5392;DHT22;2719;53.624;9.786;2023-07-13T00:13:07;17.90;99.90
5392;DHT22;2719;53.624;9.786;2023-07-13T00:15:34;17.80;99.90
5392;DHT22;2719;53.624;9.786;2023-07-13T00:18:01;17.80;99.90
5392;DHT22;2719;53.624;9.786;2023-07-13T00:20:27;17.80;99.90
5392;DHT22;2719;53.624;9.786;2023-07-13T00:22:54;17.70;99.90
5392;DHT22;2719;53.624;9.786;2023-07-13T00:25:23;17.70;99.90
5392;DHT22;2719;53.624;9.786;2023-07-13T00:27:51;17.70;99.90
5392;DHT22;2719;53.624;9.786;2023-07-13T00:30:18;17.70;99.90
5392;DHT22;2719;53.624;9.786;2023-07-13T00:32:45;17.70;99.90
5392;DHT22;2719;53.624;9.786;2023-07-13T00:35:13;17.60;99.90
5392;DHT22;2719;53.624;9.786;2023-07-13T00:37:41;17.70;99.90
5392;DHT22;2719;53.624;9.786;2023-07-13T00:40:09;17.60;99.90
5392;DHT22;2719;53.624;9.786;2023-07-13T00:42:38;17.60;99.90
5392;DHT22;2719;53.624;9.786;2023-07-13T00:45:07;17.60;99.90
5392;DHT22;2719;53.624;9.786;2023-07-13T00:47:53;17.60;99.90
5392;DHT22;2719;53.624;9.786;2023-07-13T00:50:21;17.60;99.90
5392;DHT22;2719;53.624;9.786;2023-07-13T00:52:55;17.60;99.90
5392;DHT22;2719;53.624;9.786;2023-07-13T00:55:23;17.50;99.90
5392;DHT22;2719;53.624;9.786;2023-07-13T00:57:51;17.50;99.90
5392;DHT22;2719;53.624;9.786;2023-07-13T01:00:19;17.40;99.90
5392;DHT22;2719;53.624;9.786;2023-07-13T01:02:47;17.40;99.90
5392;DHT22;2719;53.624;9.786;2023-07-13T01:05:16;17.40;99.90
5392;DHT22;2719;53.624;9.786;2023-07-13T01:07:44;17.40;99.90
5392;DHT22;2719;53.624;9.786;2023-07-13T01:10:12;17.30;99.90
5392;DHT22;2719;53.624;9.786;2023-07-13T01:12:39;17.30;99.90
5392;DHT22;2719;53.624;9.786;2023-07-13T01:15:38;17.20;99.90
5392;DHT22;2719;53.624;9.786;2023-07-13T01:18:06;17.20;99.90
5392;DHT22;2719;53.624;9.786;2023-07-13T01:20:34;17.10;99.90
5392;DHT22;2719;53.624;9.786;2023-07-13T01:23:05;17.10;99.90
5392;DHT22;2719;53.624;9.786;2023-07-13T01:25:33;17.10;99.90
5392;DHT22;2719;53.624;9.786;2023-07-13T01:28:00;17.00;99.90
5392;DHT22;2719;53.624;9.786;2023-07-13T01:30:27;17.00;99.90
5392;DHT22;2719;53.624;9.786;2023-07-13T01:32:53;17.00;99.90
5392;DHT22;2719;53.624;9.786;2023-07-13T01:35:20;16.90;99.90
5392;DHT22;2719;53.624;9.786;2023-07-13T01:37:46;16.90;99.90
5392;DHT22;2719;53.624;9.786;2023-07-13T01:40:14;16.90;99.90
5392;DHT22;2719;53.624;9.786;2023-07-13T01:42:41;16.90;99.90
5392;DHT22;2719;53.624;9.786;2023-07-13T01:45:08;16.90;99.90
5392;DHT22;2719;53.624;9.786;2023-07-13T01:47:35;16.80;99.90
5392;DHT22;2719;53.624;9.786;2023-07-13T01:50:01;16.90;99.90
5392;DHT22;2719;53.624;9.786;2023-07-13T01:52:28;16.90;99.90
5392;DHT22;2719;53.624;9.786;2023-07-13T01:54:55;16.90;99.90
5392;DHT22;2719;53.624;9.786;2023-07-13T01:57:23;16.90;99.90
5392;DHT22;2719;53.624;9.786;2023-07-13T01:59:49;16.90;99.90
5392;DHT22;2719;53.624;9.786;2023-07-13T02:02:16;16.90;99.90
5392;DHT22;2719;53.624;9.786;2023-07-13T02:04:42;16.90;99.90
5392;DHT22;2719;53.624;9.786;2023-07-13T02:07:09;16.90;99.90
5392;DHT22;2719;53.624;9.786;2023-07-13T02:09:36;16.80;99.90
5392;DHT22;2719;53.624;9.786;2023-07-13T02:12:03;16.90;99.90
5392;DHT22;2719;53.624;9.786;2023-07-13T02:14:31;16.80;99.90
5392;DHT22;2719;53.624;9.786;2023-07-13T02:16:58;16.80;99.90
5392;DHT22;2719;53.624;9.786;2023-07-13T02:19:24;16.90;99.90
5392;DHT22;2719;53.624;9.786;2023-07-13T02:21:51;16.80;99.90
5392;DHT22;2719;53.624;9.786;2023-07-13T02:24:18;16.80;99.90
5392;DHT22;2719;53.624;9.786;2023-07-13T02:26:46;16.80;99.90
5392;DHT22;2719;53.624;9.786;2023-07-13T02:29:13;16.80;99.90
5392;DHT22;2719;53.624;9.786;2023-07-13T02:31:41;16.80;99.90
5392;DHT22;2719;53.624;9.786;2023-07-13T02:34:08;16.70;99.90
5392;DHT22;2719;53.624;9.786;2023-07-13T02:36:35;16.70;99.90
5392;DHT22;2719;53.624;9.786;2023-07-13T02:39:04;16.70;99.90
5392;DHT22;2719;53.624;9.786;2023-07-13T02:41:31;16.60;99.90
5392;DHT22;2719;53.624;9.786;2023-07-13T02:43:57;16.60;99.90
5392;DHT22;2719;53.624;9.786;2023-07-13T02:46:29;16.50;99.90
5392;DHT22;2719;53.624;9.786;2023-07-13T02:48:57;16.50;99.90
5392;DHT22;2719;53.624;9.786;2023-07-13T02:51:24;16.50;99.90
5392;DHT22;2719;53.624;9.786;2023-07-13T02:53:50;16.50;99.90
5392;DHT22;2719;53.624;9.786;2023-07-13T02:56:18;16.50;99.90
5392;DHT22;2719;53.624;9.786;2023-07-13T02:58:46;16.60;99.90
5392;DHT22;2719;53.624;9.786;2023-07-13T03:01:13;16.60;99.90
5392;DHT22;2719;53.624;9.786;2023-07-13T03:03:44;16.60;99.90
5392;DHT22;2719;53.624;9.786;2023-07-13T03:06:13;16.40;99.90
5392;DHT22;2719;53.624;9.786;2023-07-13T03:08:40;16.30;99.90
5392;DHT22;2719;53.624;9.786;2023-07-13T03:11:09;16.30;99.90
5392;DHT22;2719;53.624;9.786;2023-07-13T03:13:36;16.40;99.90
5392;DHT22;2719;53.624;9.786;2023-07-13T03:16:04;16.40;99.90
5392;DHT22;2719;53.624;9.786;2023-07-13T03:18:31;16.40;99.90
5392;DHT22;2719;53.624;9.786;2023-07-13T03:20:58;16.40;99.90
5392;DHT22;2719;53.624;9.786;2023-07-13T03:23:26;16.40;99.90
5392;DHT22;2719;53.624;9.786;2023-07-13T03:26:02;16.40;99.90
5392;DHT22;2719;53.624;9.786;2023-07-13T03:28:29;16.40;99.90
5392;DHT22;2719;53.624;9.786;2023-07-13T03:31:00;16.30;99.90
5392;DHT22;2719;53.624;9.786;2023-07-13T03:33:26;16.30;99.90
5392;DHT22;2719;53.624;9.786;2023-07-13T03:35:53;16.20;99.90
5392;DHT22;2719;53.624;9.786;2023-07-13T03:38:20;16.20;99.90
5392;DHT22;2719;53.624;9.786;2023-07-13T03:40:48;16.20;99.90
5392;DHT22;2719;53.624;9.786;2023-07-13T03:43:15;16.20;99.90
5392;DHT22;2719;53.624;9.786;2023-07-13T03:45:41;16.20;99.90
5392;DHT22;2719;53.624;9.786;2023-07-13T03:48:08;16.10;99.90
5392;DHT22;2719;53.624;9.786;2023-07-13T03:50:35;16.10;99.90
5392;DHT22;2719;53.624;9.786;2023-07-13T03:53:02;16.00;99.90
5392;DHT22;2719;53.624;9.786;2023-07-13T03:55:28;16.00;99.90
5392;DHT22;2719;53.624;9.786;2023-07-13T03:58:00;16.00;99.90
5392;DHT22;2719;53.624;9.786;2023-07-13T04:00:27;16.00;99.90
5392;DHT22;2719;53.624;9.786;2023-07-13T04:02:53;16.00;99.90
5392;DHT22;2719;53.624;9.786;2023-07-13T04:05:20;16.00;99.90
5392;DHT22;2719;53.624;9.786;2023-07-13T04:07:47;16.00;99.90
5392;DHT22;2719;53.624;9.786;2023-07-13T04:10:14;15.90;99.90
5392;DHT22;2719;53.624;9.786;2023-07-13T04:12:40;15.90;99.90
5392;DHT22;2719;53.624;9.786;2023-07-13T04:15:09;15.90;99.90
5392;DHT22;2719;53.624;9.786;2023-07-13T04:17:36;16.00;99.90
5392;DHT22;2719;53.624;9.786;2023-07-13T04:20:03;15.90;99.90
5392;DHT22;2719;53.624;9.786;2023-07-13T04:22:29;15.90;99.90
5392;DHT22;2719;53.624;9.786;2023-07-13T04:24:56;15.90;99.90
5392;DHT22;2719;53.624;9.786;2023-07-13T04:27:23;15.90;99.90
5392;DHT22;2719;53.624;9.786;2023-07-13T04:29:49;15.90;99.90
5392;DHT22;2719;53.624;9.786;2023-07-13T04:32:17;15.80;99.90
5392;DHT22;2719;53.624;9.786;2023-07-13T04:34:44;15.80;99.90
5392;DHT22;2719;53.624;9.786;2023-07-13T04:37:10;15.80;99.90
5392;DHT22;2719;53.624;9.786;2023-07-13T04:39:37;15.90;99.90
5392;DHT22;2719;53.624;9.786;2023-07-13T04:42:04;15.90;99.90
5392;DHT22;2719;53.624;9.786;2023-07-13T04:44:31;16.00;99.90
5392;DHT22;2719;53.624;9.786;2023-07-13T04:46:58;15.90;99.90
5392;DHT22;2719;53.624;9.786;2023-07-13T04:49:26;16.00;99.90
5392;DHT22;2719;53.624;9.786;2023-07-13T04:51:53;15.90;99.90
5392;DHT22;2719;53.624;9.786;2023-07-13T04:54:20;16.00;99.90
5392;DHT22;2719;53.624;9.786;2023-07-13T04:56:47;16.00;99.90
5392;DHT22;2719;53.624;9.786;2023-07-13T04:59:14;16.00;99.90
5392;DHT22;2719;53.624;9.786;2023-07-13T05:01:41;16.00;99.90
5392;DHT22;2719;53.624;9.786;2023-07-13T05:04:08;16.10;99.90
5392;DHT22;2719;53.624;9.786;2023-07-13T05:06:36;16.10;99.90
5392;DHT22;2719;53.624;9.786;2023-07-13T05:09:03;16.10;99.90
5392;DHT22;2719;53.624;9.786;2023-07-13T05:11:29;16.10;99.90
5392;DHT22;2719;53.624;9.786;2023-07-13T05:13:56;16.20;99.90
5392;DHT22;2719;53.624;9.786;2023-07-13T05:16:23;16.20;99.90
5392;DHT22;2719;53.624;9.786;2023-07-13T05:18:49;16.30;99.90
5392;DHT22;2719;53.624;9.786;2023-07-13T05:21:16;16.30;99.90
5392;DHT22;2719;53.624;9.786;2023-07-13T05:23:44;16.20;99.90
5392;DHT22;2719;53.624;9.786;2023-07-13T05:26:11;16.30;99.90
5392;DHT22;2719;53.624;9.786;2023-07-13T05:28:38;16.30;99.90
5392;DHT22;2719;53.624;9.786;2023-07-13T05:31:06;16.30;99.90
5392;DHT22;2719;53.624;9.786;2023-07-13T05:33:33;16.30;99.90
5392;DHT22;2719;53.624;9.786;2023-07-13T05:36:00;16.30;99.90
5392;DHT22;2719;53.624;9.786;2023-07-13T05:38:27;16.30;99.90
5392;DHT22;2719;53.624;9.786;2023-07-13T05:40:56;16.40;99.90
5392;DHT22;2719;53.624;9.786;2023-07-13T05:43:23;16.40;99.90
5392;DHT22;2719;53.624;9.786;2023-07-13T05:45:52;16.50;99.90
5392;DHT22;2719;53.624;9.786;2023-07-13T05:48:19;16.50;99.90
5392;DHT22;2719;53.624;9.786;2023-07-13T05:50:45;16.50;99.90
5392;DHT22;2719;53.624;9.786;2023-07-13T05:53:13;16.50;99.90
5392;DHT22;2719;53.624;9.786;2023-07-13T05:55:41;16.50;99.90
5392;DHT22;2719;53.624;9.786;2023-07-13T05:58:11;16.60;99.90
5392;DHT22;2719;53.624;9.786;2023-07-13T06:00:38;16.60;99.90
5392;DHT22;2719;53.624;9.786;2023-07-13T06:03:05;16.70;99.90
5392;DHT22;2719;53.624;9.786;2023-07-13T06:05:32;16.70;99.90
5392;DHT22;2719;53.624;9.786;2023-07-13T06:07:59;16.70;99.90
5392;DHT22;2719;53.624;9.786;2023-07-13T06:10:26;16.70;99.90
5392;DHT22;2719;53.624;9.786;2023-07-13T06:12:53;16.70;99.90
5392;DHT22;2719;53.624;9.786;2023-07-13T06:15:21;16.70;99.90
5392;DHT22;2719;53.624;9.786;2023-07-13T06:17:47;16.70;99.90
5392;DHT22;2719;53.624;9.786;2023-07-13T06:20:14;16.70;99.90
5392;DHT22;2719;53.624;9.786;2023-07-13T06:22:41;16.80;99.90
5392;DHT22;2719;53.624;9.786;2023-07-13T06:25:08;16.80;99.90
5392;DHT22;2719;53.624;9.786;2023-07-13T06:27:35;16.80;99.90
5392;DHT22;2719;53.624;9.786;2023-07-13T06:30:02;16.80;99.90
5392;DHT22;2719;53.624;9.786;2023-07-13T06:32:30;16.80;99.90
5392;DHT22;2719;53.624;9.786;2023-07-13T06:34:56;16.80;99.90
5392;DHT22;2719;53.624;9.786;2023-07-13T06:37:23;16.80;99.90
5392;DHT22;2719;53.624;9.786;2023-07-13T06:39:50;16.80;99.90
5392;DHT22;2719;53.624;9.786;2023-07-13T06:42:17;16.90;99.90
5392;DHT22;2719;53.624;9.786;2023-07-13T06:44:44;16.90;99.90
5392;DHT22;2719;53.624;9.786;2023-07-13T06:47:10;16.90;99.90
5392;DHT22;2719;53.624;9.786;2023-07-13T06:49:38;16.90;99.90
5392;DHT22;2719;53.624;9.786;2023-07-13T06:52:05;17.00;99.90
5392;DHT22;2719;53.624;9.786;2023-07-13T06:54:32;17.00;99.90
5392;DHT22;2719;53.624;9.786;2023-07-13T06:57:00;17.00;99.90
5392;DHT22;2719;53.624;9.786;2023-07-13T06:59:27;17.00;99.90
5392;DHT22;2719;53.624;9.786;2023-07-13T07:01:53;17.10;99.90
5392;DHT22;2719;53.624;9.786;2023-07-13T07:04:20;17.10;99.90
5392;DHT22;2719;53.624;9.786;2023-07-13T07:06:48;17.10;99.90
5392;DHT22;2719;53.624;9.786;2023-07-13T07:09:15;17.20;99.90
5392;DHT22;2719;53.624;9.786;2023-07-13T07:11:42;17.20;99.90
5392;DHT22;2719;53.624;9.786;2023-07-13T07:14:09;17.20;99.90
5392;DHT22;2719;53.624;9.786;2023-07-13T07:16:36;17.40;99.90
5392;DHT22;2719;53.624;9.786;2023-07-13T07:19:03;17.40;99.90
5392;DHT22;2719;53.624;9.786;2023-07-13T07:21:29;17.40;99.90
5392;DHT22;2719;53.624;9.786;2023-07-13T07:23:58;17.40;99.90
5392;DHT22;2719;53.624;9.786;2023-07-13T07:26:25;17.50;99.90
5392;DHT22;2719;53.624;9.786;2023-07-13T07:28:51;17.60;99.90
5392;DHT22;2719;53.624;9.786;2023-07-13T07:31:18;17.60;99.90
5392;DHT22;2719;53.624;9.786;2023-07-13T07:33:45;17.60;99.90
5392;DHT22;2719;53.624;9.786;2023-07-13T07:36:12;17.60;99.90
5392;DHT22;2719;53.624;9.786;2023-07-13T07:38:38;17.60;99.90
5392;DHT22;2719;53.624;9.786;2023-07-13T07:41:06;17.70;99.90
5392;DHT22;2719;53.624;9.786;2023-07-13T07:43:33;17.80;99.90
5392;DHT22;2719;53.624;9.786;2023-07-13T07:46:00;17.90;99.90
5392;DHT22;2719;53.624;9.786;2023-07-13T07:48:26;18.00;99.90
5392;DHT22;2719;53.624;9.786;2023-07-13T07:50:53;17.90;99.90
5392;DHT22;2719;53.624;9.786;2023-07-13T07:53:19;17.90;99.90
5392;DHT22;2719;53.624;9.786;2023-07-13T07:55:46;18.00;99.90
5392;DHT22;2719;53.624;9.786;2023-07-13T07:58:15;18.00;99.90
5392;DHT22;2719;53.624;9.786;2023-07-13T08:00:41;17.90;99.90
5392;DHT22;2719;53.624;9.786;2023-07-13T08:03:08;18.10;99.90
5392;DHT22;2719;53.624;9.786;2023-07-13T08:05:36;18.10;99.90
5392;DHT22;2719;53.624;9.786;2023-07-13T08:08:03;18.00;99.90
5392;DHT22;2719;53.624;9.786;2023-07-13T08:10:30;18.10;99.90
5392;DHT22;2719;53.624;9.786;2023-07-13T08:12:56;18.20;99.90
5392;DHT22;2719;53.624;9.786;2023-07-13T08:15:24;18.20;99.90
5392;DHT22;2719;53.624;9.786;2023-07-13T08:17:51;18.20;99.90
5392;DHT22;2719;53.624;9.786;2023-07-13T08:20:18;18.20;99.90
5392;DHT22;2719;53.624;9.786;2023-07-13T08:22:44;18.20;99.90
5392;DHT22;2719;53.624;9.786;2023-07-13T08:25:11;18.10;99.90
5392;DHT22;2719;53.624;9.786;2023-07-13T08:27:38;18.20;99.90
5392;DHT22;2719;53.624;9.786;2023-07-13T08:30:06;18.30;99.90
5392;DHT22;2719;53.624;9.786;2023-07-13T08:32:36;18.30;99.90
5392;DHT22;2719;53.624;9.786;2023-07-13T08:35:03;18.40;99.90
5392;DHT22;2719;53.624;9.786;2023-07-13T08:37:30;18.50;99.90
5392;DHT22;2719;53.624;9.786;2023-07-13T08:39:56;18.50;99.90
5392;DHT22;2719;53.624;9.786;2023-07-13T08:42:32;18.60;99.90
5392;DHT22;2719;53.624;9.786;2023-07-13T08:45:06;18.70;99.90
5392;DHT22;2719;53.624;9.786;2023-07-13T08:47:38;18.70;99.90
5392;DHT22;2719;53.624;9.786;2023-07-13T08:50:11;18.80;99.90
5392;DHT22;2719;53.624;9.786;2023-07-13T08:52:41;18.90;99.90
5392;DHT22;2719;53.624;9.786;2023-07-13T08:55:13;18.90;99.90
5392;DHT22;2719;53.624;9.786;2023-07-13T08:57:42;18.90;99.90
5392;DHT22;2719;53.624;9.786;2023-07-13T09:00:10;19.00;99.90
5392;DHT22;2719;53.624;9.786;2023-07-13T09:02:44;19.00;99.90
5392;DHT22;2719;53.624;9.786;2023-07-13T09:05:14;19.20;99.90
5392;DHT22;2719;53.624;9.786;2023-07-13T09:08:04;19.10;99.90
5392;DHT22;2719;53.624;9.786;2023-07-13T09:10:41;19.10;99.90
5392;DHT22;2719;53.624;9.786;2023-07-13T09:13:18;19.00;99.90
5392;DHT22;2719;53.624;9.786;2023-07-13T09:15:48;19.00;99.90
5392;DHT22;2719;53.624;9.786;2023-07-13T09:18:23;19.00;99.90
5392;DHT22;2719;53.624;9.786;2023-07-13T09:20:54;19.00;99.90
5392;DHT22;2719;53.624;9.786;2023-07-13T09:23:23;19.10;99.90
5392;DHT22;2719;53.624;9.786;2023-07-13T09:25:54;19.20;99.90
5392;DHT22;2719;53.624;9.786;2023-07-13T09:28:24;19.20;99.90
5392;DHT22;2719;53.624;9.786;2023-07-13T09:30:58;19.30;99.90
5392;DHT22;2719;53.624;9.786;2023-07-13T09:33:28;19.30;99.90
5392;DHT22;2719;53.624;9.786;2023-07-13T09:35:56;19.40;99.90
5392;DHT22;2719;53.624;9.786;2023-07-13T09:38:24;19.50;99.90
5392;DHT22;2719;53.624;9.786;2023-07-13T09:41:17;19.60;99.90
5392;DHT22;2719;53.624;9.786;2023-07-13T09:44:01;19.60;99.90
5392;DHT22;2719;53.624;9.786;2023-07-13T09:46:28;19.60;99.90
5392;DHT22;2719;53.624;9.786;2023-07-13T09:48:56;19.60;99.90
5392;DHT22;2719;53.624;9.786;2023-07-13T09:51:23;19.60;99.90
5392;DHT22;2719;53.624;9.786;2023-07-13T09:53:49;19.60;99.90
5392;DHT22;2719;53.624;9.786;2023-07-13T09:56:20;19.70;99.90
5392;DHT22;2719;53.624;9.786;2023-07-13T09:58:47;19.80;99.90
5392;DHT22;2719;53.624;9.786;2023-07-13T10:01:14;19.70;99.90
5392;DHT22;2719;53.624;9.786;2023-07-13T10:03:52;19.80;99.90
5392;DHT22;2719;53.624;9.786;2023-07-13T10:06:21;19.90;99.90
5392;DHT22;2719;53.624;9.786;2023-07-13T10:08:49;20.00;99.90
5392;DHT22;2719;53.624;9.786;2023-07-13T10:11:19;20.20;99.90
5392;DHT22;2719;53.624;9.786;2023-07-13T10:13:51;20.10;99.90
5392;DHT22;2719;53.624;9.786;2023-07-13T10:16:19;20.20;99.90
5392;DHT22;2719;53.624;9.786;2023-07-13T10:18:48;20.30;99.90
5392;DHT22;2719;53.624;9.786;2023-07-13T10:21:17;20.30;99.90
5392;DHT22;2719;53.624;9.786;2023-07-13T10:23:48;20.40;99.90
5392;DHT22;2719;53.624;9.786;2023-07-13T10:26:19;20.50;99.90
5392;DHT22;2719;53.624;9.786;2023-07-13T10:28:51;20.50;99.90
5392;DHT22;2719;53.624;9.786;2023-07-13T10:31:21;20.50;99.90
5392;DHT22;2719;53.624;9.786;2023-07-13T10:33:48;20.50;99.90
5392;DHT22;2719;53.624;9.786;2023-07-13T10:36:23;20.60;99.90
5392;DHT22;2719;53.624;9.786;2023-07-13T10:38:54;20.60;99.90
5392;DHT22;2719;53.624;9.786;2023-07-13T10:41:24;20.60;99.90
5392;DHT22;2719;53.624;9.786;2023-07-13T10:43:54;20.70;99.90
5392;DHT22;2719;53.624;9.786;2023-07-13T10:46:24;20.70;99.90
5392;DHT22;2719;53.624;9.786;2023-07-13T10:48:56;20.60;99.90
5392;DHT22;2719;53.624;9.786;2023-07-13T10:51:25;20.60;99.90
5392;DHT22;2719;53.624;9.786;2023-07-13T10:56:50;20.70;99.90
5392;DHT22;2719;53.624;9.786;2023-07-13T10:59:19;21.00;99.90
5392;DHT22;2719;53.624;9.786;2023-07-13T11:01:55;21.00;99.90
5392;DHT22;2719;53.624;9.786;2023-07-13T11:04:23;20.90;99.90
5392;DHT22;2719;53.624;9.786;2023-07-13T11:06:56;20.80;99.90
5392;DHT22;2719;53.624;9.786;2023-07-13T11:09:37;20.70;99.90
5392;DHT22;2719;53.624;9.786;2023-07-13T11:12:28;20.70;99.90
5392;DHT22;2719;53.624;9.786;2023-07-13T11:15:04;20.70;99.90
5392;DHT22;2719;53.624;9.786;2023-07-13T11:17:37;20.70;99.90
5392;DHT22;2719;53.624;9.786;2023-07-13T11:20:21;20.70;99.90
5392;DHT22;2719;53.624;9.786;2023-07-13T11:22:51;20.60;99.90
5392;DHT22;2719;53.624;9.786;2023-07-13T11:25:26;20.70;99.90
5392;DHT22;2719;53.624;9.786;2023-07-13T11:28:11;20.80;99.90
5392;DHT22;2719;53.624;9.786;2023-07-13T11:30:41;20.90;99.90
5392;DHT22;2719;53.624;9.786;2023-07-13T11:33:16;21.00;99.90
5392;DHT22;2719;53.624;9.786;2023-07-13T11:35:50;21.10;99.90
5392;DHT22;2719;53.624;9.786;2023-07-13T11:38:20;21.20;99.90
5392;DHT22;2719;53.624;9.786;2023-07-13T11:40:50;21.30;99.90
5392;DHT22;2719;53.624;9.786;2023-07-13T11:43:19;21.40;99.90
5392;DHT22;2719;53.624;9.786;2023-07-13T11:45:49;21.40;99.90
5392;DHT22;2719;53.624;9.786;2023-07-13T11:48:25;21.30;99.90
5392;DHT22;2719;53.624;9.786;2023-07-13T11:50:58;21.20;99.90
5392;DHT22;2719;53.624;9.786;2023-07-13T11:53:27;21.10;99.90
5392;DHT22;2719;53.624;9.786;2023-07-13T11:55:55;21.10;99.90
5392;DHT22;2719;53.624;9.786;2023-07-13T11:58:25;21.00;99.90
5392;DHT22;2719;53.624;9.786;2023-07-13T12:00:55;20.90;99.90
5392;DHT22;2719;53.624;9.786;2023-07-13T12:03:25;20.70;99.90
5392;DHT22;2719;53.624;9.786;2023-07-13T12:05:59;20.50;99.90
5392;DHT22;2719;53.624;9.786;2023-07-13T12:08:26;20.30;99.90
5392;DHT22;2719;53.624;9.786;2023-07-13T12:10:58;20.10;99.90
5392;DHT22;2719;53.624;9.786;2023-07-13T12:13:27;20.00;99.90
5392;DHT22;2719;53.624;9.786;2023-07-13T12:15:56;19.80;99.90
5392;DHT22;2719;53.624;9.786;2023-07-13T12:18:28;19.60;99.90
5392;DHT22;2719;53.624;9.786;2023-07-13T12:20:58;19.60;99.90
5392;DHT22;2719;53.624;9.786;2023-07-13T12:23:28;19.50;99.90
5392;DHT22;2719;53.624;9.786;2023-07-13T12:25:55;19.40;99.90
5392;DHT22;2719;53.624;9.786;2023-07-13T12:28:32;19.50;99.90
5392;DHT22;2719;53.624;9.786;2023-07-13T12:31:01;19.40;99.90
5392;DHT22;2719;53.624;9.786;2023-07-13T12:33:29;19.10;99.90
5392;DHT22;2719;53.624;9.786;2023-07-13T12:35:57;19.10;99.90
5392;DHT22;2719;53.624;9.786;2023-07-13T12:38:25;19.10;99.90
5392;DHT22;2719;53.624;9.786;2023-07-13T12:40:52;19.20;99.90
5392;DHT22;2719;53.624;9.786;2023-07-13T12:43:20;19.20;99.90
5392;DHT22;2719;53.624;9.786;2023-07-13T12:45:57;19.20;99.90
5392;DHT22;2719;53.624;9.786;2023-07-13T12:48:25;19.10;99.90
5392;DHT22;2719;53.624;9.786;2023-07-13T12:50:54;19.00;99.90
5392;DHT22;2719;53.624;9.786;2023-07-13T12:53:23;18.80;99.90
5392;DHT22;2719;53.624;9.786;2023-07-13T12:55:56;18.70;99.90
5392;DHT22;2719;53.624;9.786;2023-07-13T12:58:27;18.70;99.90
5392;DHT22;2719;53.624;9.786;2023-07-13T13:00:58;18.70;99.90
5392;DHT22;2719;53.624;9.786;2023-07-13T13:03:30;18.80;99.90
5392;DHT22;2719;53.624;9.786;2023-07-13T13:05:59;18.80;99.90
5392;DHT22;2719;53.624;9.786;2023-07-13T13:08:28;18.70;99.90
5392;DHT22;2719;53.624;9.786;2023-07-13T13:10:55;18.70;99.90
5392;DHT22;2719;53.624;9.786;2023-07-13T13:13:22;18.60;99.90
5392;DHT22;2719;53.624;9.786;2023-07-13T13:15:50;18.60;99.90
5392;DHT22;2719;53.624;9.786;2023-07-13T13:18:20;18.60;99.90
5392;DHT22;2719;53.624;9.786;2023-07-13T13:20:48;18.70;99.90
5392;DHT22;2719;53.624;9.786;2023-07-13T13:23:16;18.80;99.90
5392;DHT22;2719;53.624;9.786;2023-07-13T13:25:43;18.80;99.90
5392;DHT22;2719;53.624;9.786;2023-07-13T13:28:15;18.70;99.90
5392;DHT22;2719;53.624;9.786;2023-07-13T13:30:43;18.80;99.90
5392;DHT22;2719;53.624;9.786;2023-07-13T13:33:12;18.90;99.90
5392;DHT22;2719;53.624;9.786;2023-07-13T13:35:41;18.80;99.90
5392;DHT22;2719;53.624;9.786;2023-07-13T13:38:12;18.80;99.90
5392;DHT22;2719;53.624;9.786;2023-07-13T13:40:40;18.70;99.90
5392;DHT22;2719;53.624;9.786;2023-07-13T13:43:15;18.70;99.90
5392;DHT22;2719;53.624;9.786;2023-07-13T13:45:43;18.70;99.90
5392;DHT22;2719;53.624;9.786;2023-07-13T13:48:14;18.60;99.90
5392;DHT22;2719;53.624;9.786;2023-07-13T13:50:43;18.60;99.90
5392;DHT22;2719;53.624;9.786;2023-07-13T13:53:11;18.60;99.90
5392;DHT22;2719;53.624;9.786;2023-07-13T13:55:39;18.70;99.90
5392;DHT22;2719;53.624;9.786;2023-07-13T13:58:08;18.80;99.90
5392;DHT22;2719;53.624;9.786;2023-07-13T14:00:35;19.00;99.90
5392;DHT22;2719;53.624;9.786;2023-07-13T14:03:01;19.10;99.90
5392;DHT22;2719;53.624;9.786;2023-07-13T14:05:28;19.10;99.90
5392;DHT22;2719;53.624;9.786;2023-07-13T14:07:57;19.30;99.90
5392;DHT22;2719;53.624;9.786;2023-07-13T14:10:25;19.50;99.90
5392;DHT22;2719;53.624;9.786;2023-07-13T14:12:54;19.80;99.90
5392;DHT22;2719;53.624;9.786;2023-07-13T14:15:23;20.00;99.90
5392;DHT22;2719;53.624;9.786;2023-07-13T14:17:50;20.00;99.90
5392;DHT22;2719;53.624;9.786;2023-07-13T14:20:18;19.90;99.90
5392;DHT22;2719;53.624;9.786;2023-07-13T14:22:45;19.80;99.90
5392;DHT22;2719;53.624;9.786;2023-07-13T14:25:14;19.70;99.90
5392;DHT22;2719;53.624;9.786;2023-07-13T14:27:42;19.70;99.90
5392;DHT22;2719;53.624;9.786;2023-07-13T14:30:13;19.70;99.90
5392;DHT22;2719;53.624;9.786;2023-07-13T14:32:40;19.80;99.90
5392;DHT22;2719;53.624;9.786;2023-07-13T14:35:08;19.80;99.90
5392;DHT22;2719;53.624;9.786;2023-07-13T14:37:36;19.80;99.90
5392;DHT22;2719;53.624;9.786;2023-07-13T14:40:14;19.80;99.90
5392;DHT22;2719;53.624;9.786;2023-07-13T14:42:41;19.70;99.90
5392;DHT22;2719;53.624;9.786;2023-07-13T14:45:13;19.80;99.90
5392;DHT22;2719;53.624;9.786;2023-07-13T14:47:41;19.90;99.90
5392;DHT22;2719;53.624;9.786;2023-07-13T14:50:13;19.90;99.90
5392;DHT22;2719;53.624;9.786;2023-07-13T14:52:41;19.90;99.90
5392;DHT22;2719;53.624;9.786;2023-07-13T14:55:11;19.80;99.90
5392;DHT22;2719;53.624;9.786;2023-07-13T14:57:39;19.90;99.90
5392;DHT22;2719;53.624;9.786;2023-07-13T15:00:13;19.90;99.90
5392;DHT22;2719;53.624;9.786;2023-07-13T15:02:41;20.20;99.90
5392;DHT22;2719;53.624;9.786;2023-07-13T15:05:13;20.50;99.90
5392;DHT22;2719;53.624;9.786;2023-07-13T15:07:40;20.60;99.90
5392;DHT22;2719;53.624;9.786;2023-07-13T15:10:14;20.70;99.90
5392;DHT22;2719;53.624;9.786;2023-07-13T15:12:42;20.80;99.90
5392;DHT22;2719;53.624;9.786;2023-07-13T15:15:09;20.90;99.90
5392;DHT22;2719;53.624;9.786;2023-07-13T15:17:37;21.10;99.90
5392;DHT22;2719;53.624;9.786;2023-07-13T15:20:12;21.10;99.90
5392;DHT22;2719;53.624;9.786;2023-07-13T15:22:39;20.90;99.90
5392;DHT22;2719;53.624;9.786;2023-07-13T15:25:13;20.80;99.90
5392;DHT22;2719;53.624;9.786;2023-07-13T15:27:42;20.80;99.90
5392;DHT22;2719;53.624;9.786;2023-07-13T15:30:10;20.80;99.90
5392;DHT22;2719;53.624;9.786;2023-07-13T15:32:37;20.70;99.90
5392;DHT22;2719;53.624;9.786;2023-07-13T15:35:05;20.60;99.90
5392;DHT22;2719;53.624;9.786;2023-07-13T15:37:32;20.50;99.90
5392;DHT22;2719;53.624;9.786;2023-07-13T15:39:58;20.40;99.90
5392;DHT22;2719;53.624;9.786;2023-07-13T15:42:25;20.40;99.90
5392;DHT22;2719;53.624;9.786;2023-07-13T15:44:53;20.30;99.90
5392;DHT22;2719;53.624;9.786;2023-07-13T15:47:20;20.20;99.90
5392;DHT22;2719;53.624;9.786;2023-07-13T15:49:46;20.30;99.90
5392;DHT22;2719;53.624;9.786;2023-07-13T15:52:17;20.30;99.90
5392;DHT22;2719;53.624;9.786;2023-07-13T15:54:45;20.30;99.90
5392;DHT22;2719;53.624;9.786;2023-07-13T15:57:12;20.30;99.90
5392;DHT22;2719;53.624;9.786;2023-07-13T15:59:39;20.10;99.90
5392;DHT22;2719;53.624;9.786;2023-07-13T16:02:13;20.10;99.90
5392;DHT22;2719;53.624;9.786;2023-07-13T16:04:41;20.20;99.90
5392;DHT22;2719;53.624;9.786;2023-07-13T16:07:10;20.30;99.90
5392;DHT22;2719;53.624;9.786;2023-07-13T16:09:37;20.20;99.90
5392;DHT22;2719;53.624;9.786;2023-07-13T16:12:09;20.10;99.90
5392;DHT22;2719;53.624;9.786;2023-07-13T16:14:37;20.10;99.90